Time;durP1;ratioP1;P1;durP2;ratioP2;P2;SDS_P1;SDS_P2;PMS_P1;PMS_P2;Temp;Humidity;BMP_temperature;BMP_pressure;BME280_temperature;BME280_humidity;BME280_pressure;Samples;Min_cycle;Max_cycle;Signal;HPM_P1;HPM_P2
2024/03/17 00:02:00;;;;;;;4.72;2.00;;;;;;;;;;5071183;28;20071;-75
2024/03/17 00:04:27;;;;;;;4.32;1.95;;;;;;;;;;5069971;28;20029;-75
2024/03/17 00:06:52;;;;;;;6.18;1.98;;;;;;;;;;5073457;28;20024;-75
2024/03/17 00:09:17;;;;;;;5.80;2.05;;;;;;;;;;5069777;28;20029;-75
2024/03/17 00:11:43;;;;;;;6.03;2.20;;;;;;;;;;5075795;28;20441;-75
2024/03/17 00:14:09;;;;;;;5.40;2.42;;;;;;;;;;5069518;28;20121;-75
2024/03/17 00:16:34;;;;;;;4.85;1.90;;;;;;;;;;5070134;28;20425;-75
2024/03/17 00:18:59;;;;;;;4.88;2.30;;;;;;;;;;5070088;28;20058;-75
2024/03/17 00:21:26;;;;;;;5.05;2.40;;;;;;;;;;5073911;28;20040;-75
2024/03/17 00:23:51;;;;;;;6.78;2.95;;;;;;;;;;5073457;28;20058;-75
2024/03/17 00:26:16;;;;;;;4.75;2.17;;;;;;;;;;5076796;28;20060;-75
2024/03/17 00:28:41;;;;;;;6.95;2.35;;;;;;;;;;5070011;28;20473;-75
2024/03/17 00:31:10;;;;;;;6.85;3.05;;;;;;;;;;5073607;28;20074;-76
2024/03/17 00:33:35;;;;;;;6.97;3.10;;;;;;;;;;5069559;28;20059;-75
2024/03/17 00:36:01;;;;;;;5.68;2.95;;;;;;;;;;5069453;28;20060;-75
2024/03/17 00:38:26;;;;;;;8.70;2.60;;;;;;;;;;5074619;28;20032;-75
2024/03/17 00:40:51;;;;;;;6.18;2.67;;;;;;;;;;5079955;28;20407;-75
2024/03/17 00:43:16;;;;;;;8.27;2.83;;;;;;;;;;5069278;28;20039;-75
2024/03/17 00:45:41;;;;;;;8.00;2.92;;;;;;;;;;5071547;28;20032;-75
2024/03/17 00:48:07;;;;;;;8.48;2.70;;;;;;;;;;5069614;28;20042;-76
2024/03/17 00:50:32;;;;;;;7.25;2.60;;;;;;;;;;5078269;28;20362;-75
2024/03/17 00:52:57;;;;;;;9.70;3.03;;;;;;;;;;5069287;28;20519;-76
2024/03/17 00:55:23;;;;;;;9.90;3.20;;;;;;;;;;5073450;28;20366;-76
2024/03/17 00:57:48;;;;;;;6.63;2.45;;;;;;;;;;5069603;28;20401;-75
2024/03/17 01:00:15;;;;;;;8.18;2.70;;;;;;;;;;5073701;28;20028;-76
2024/03/17 01:02:40;;;;;;;5.53;2.33;;;;;;;;;;5069215;28;20044;-76
2024/03/17 01:05:06;;;;;;;7.88;2.58;;;;;;;;;;5069280;28;20032;-76
2024/03/17 01:07:31;;;;;;;7.70;2.47;;;;;;;;;;5070469;28;20028;-75
2024/03/17 01:09:57;;;;;;;7.05;2.65;;;;;;;;;;5074804;28;20028;-75
2024/03/17 01:12:22;;;;;;;6.18;2.38;;;;;;;;;;5074049;28;20722;-75
2024/03/17 01:14:47;;;;;;;7.65;2.63;;;;;;;;;;5076071;28;20098;-76
2024/03/17 01:17:12;;;;;;;8.80;2.67;;;;;;;;;;5075956;28;20036;-76
2024/03/17 01:19:37;;;;;;;4.90;2.00;;;;;;;;;;5075939;28;20063;-76
2024/03/17 01:22:03;;;;;;;9.60;2.67;;;;;;;;;;5086092;28;20036;-75
2024/03/17 01:24:31;;;;;;;8.15;2.55;;;;;;;;;;5079433;28;20381;-76
2024/03/17 01:26:57;;;;;;;5.78;2.53;;;;;;;;;;5075666;28;20029;-76
2024/03/17 01:29:22;;;;;;;7.55;3.15;;;;;;;;;;5073155;28;20032;-76
2024/03/17 01:31:47;;;;;;;6.50;3.00;;;;;;;;;;5078268;28;20426;-75
2024/03/17 01:34:12;;;;;;;9.98;2.85;;;;;;;;;;5072165;28;20029;-76
2024/03/17 01:36:38;;;;;;;10.27;2.90;;;;;;;;;;5074371;28;20052;-76
2024/03/17 01:39:03;;;;;;;7.97;2.83;;;;;;;;;;5072566;28;20032;-75
2024/03/17 01:41:28;;;;;;;6.88;2.22;;;;;;;;;;5076797;28;20063;-75
2024/03/17 01:43:53;;;;;;;8.43;2.75;;;;;;;;;;5072429;28;20052;-76
2024/03/17 01:46:19;;;;;;;6.00;2.60;;;;;;;;;;5072282;28;20131;-75
2024/03/17 01:48:45;;;;;;;6.10;2.85;;;;;;;;;;5072552;28;20028;-76
2024/03/17 01:51:10;;;;;;;6.03;2.30;;;;;;;;;;5077688;28;20031;-76
2024/03/17 01:53:36;;;;;;;9.02;3.25;;;;;;;;;;5075249;28;20032;-75
2024/03/17 01:56:02;;;;;;;6.85;2.50;;;;;;;;;;5075717;28;20056;-76
2024/03/17 01:58:29;;;;;;;4.95;2.30;;;;;;;;;;5076420;28;20032;-75
2024/03/17 02:00:55;;;;;;;7.22;2.92;;;;;;;;;;5077587;28;20029;-76
2024/03/17 02:03:20;;;;;;;7.70;3.08;;;;;;;;;;5071949;28;20036;-76
2024/03/17 02:05:45;;;;;;;9.57;3.00;;;;;;;;;;5071922;28;20032;-75
2024/03/17 02:08:11;;;;;;;11.18;4.07;;;;;;;;;;5073765;28;20025;-75
2024/03/17 02:10:36;;;;;;;8.88;3.05;;;;;;;;;;5077512;28;20476;-75
2024/03/17 02:13:03;;;;;;;9.07;2.95;;;;;;;;;;5071834;28;20051;-75
2024/03/17 02:15:28;;;;;;;6.28;2.67;;;;;;;;;;5075945;28;20107;-75
2024/03/17 02:17:54;;;;;;;5.80;3.00;;;;;;;;;;5072154;28;20468;-75
2024/03/17 02:20:19;;;;;;;8.77;3.15;;;;;;;;;;5075917;28;20032;-75
2024/03/17 02:22:44;;;;;;;8.18;2.95;;;;;;;;;;5077454;28;20278;-75
2024/03/17 02:25:09;;;;;;;9.82;3.30;;;;;;;;;;5072978;28;20096;-75
2024/03/17 02:27:35;;;;;;;10.70;3.17;;;;;;;;;;5071698;28;20119;-75
2024/03/17 02:30:01;;;;;;;6.50;3.13;;;;;;;;;;5076571;28;20020;-75
2024/03/17 02:32:27;;;;;;;7.95;3.33;;;;;;;;;;5071763;28;20410;-75
2024/03/17 02:34:53;;;;;;;10.25;3.72;;;;;;;;;;5080784;28;20029;-75
2024/03/17 02:37:18;;;;;;;5.38;2.65;;;;;;;;;;5071951;28;20385;-75
2024/03/17 02:39:43;;;;;;;10.32;3.17;;;;;;;;;;5073910;28;20025;-75
2024/03/17 02:42:09;;;;;;;7.07;2.92;;;;;;;;;;5073951;28;20056;-75
2024/03/17 02:44:35;;;;;;;10.20;3.80;;;;;;;;;;5071265;28;20042;-75
2024/03/17 02:47:02;;;;;;;6.97;3.47;;;;;;;;;;5076880;28;20519;-75
2024/03/17 02:49:28;;;;;;;8.35;3.25;;;;;;;;;;5071341;28;20016;-75
2024/03/17 02:51:56;;;;;;;8.48;2.90;;;;;;;;;;5078791;28;20458;-75
2024/03/17 02:54:21;;;;;;;9.07;3.65;;;;;;;;;;5074140;28;20046;-76
2024/03/17 02:56:47;;;;;;;4.53;2.55;;;;;;;;;;5071268;28;20477;-75
2024/03/17 02:59:12;;;;;;;8.20;3.15;;;;;;;;;;5071284;28;20033;-75
2024/03/17 03:01:37;;;;;;;8.02;2.50;;;;;;;;;;5082268;28;20036;-75
2024/03/17 03:04:03;;;;;;;7.32;3.10;;;;;;;;;;5073366;28;20111;-75
2024/03/17 03:06:28;;;;;;;7.07;3.10;;;;;;;;;;5072601;28;20032;-75
2024/03/17 03:08:53;;;;;;;8.70;2.47;;;;;;;;;;5073423;28;20033;-75
2024/03/17 03:11:18;;;;;;;6.80;3.15;;;;;;;;;;5077936;28;20036;-75
2024/03/17 03:13:44;;;;;;;8.18;2.88;;;;;;;;;;5074594;28;20079;-75
2024/03/17 03:16:10;;;;;;;8.82;3.25;;;;;;;;;;5070668;28;20138;-75
2024/03/17 03:18:36;;;;;;;6.82;2.75;;;;;;;;;;5070823;28;20040;-75
2024/03/17 03:21:01;;;;;;;6.78;3.10;;;;;;;;;;5075104;28;20043;-76
2024/03/17 03:23:27;;;;;;;7.53;2.90;;;;;;;;;;5070182;28;20029;-75
2024/03/17 03:25:56;;;;;;;8.93;3.40;;;;;;;;;;5070527;28;20064;-76
2024/03/17 03:28:21;;;;;;;7.13;2.92;;;;;;;;;;5071629;28;20065;-76
2024/03/17 03:30:47;;;;;;;12.40;3.20;;;;;;;;;;5074792;28;20396;-75
2024/03/17 03:33:12;;;;;;;7.93;3.58;;;;;;;;;;5069932;28;20036;-76
2024/03/17 03:35:37;;;;;;;5.82;3.10;;;;;;;;;;5070196;28;20062;-76
2024/03/17 03:38:02;;;;;;;7.88;3.38;;;;;;;;;;5073976;28;20409;-75
2024/03/17 03:40:28;;;;;;;6.45;3.08;;;;;;;;;;5074349;28;20107;-76
2024/03/17 03:42:53;;;;;;;10.10;3.60;;;;;;;;;;5070061;28;20036;-76
2024/03/17 03:45:18;;;;;;;8.35;3.85;;;;;;;;;;5070206;28;20029;-75
2024/03/17 03:47:43;;;;;;;9.93;3.65;;;;;;;;;;5070373;28;20029;-76
2024/03/17 03:50:09;;;;;;;6.57;3.67;;;;;;;;;;5074160;28;20419;-76
2024/03/17 03:52:35;;;;;;;12.43;4.35;;;;;;;;;;5069909;28;20719;-75
2024/03/17 03:55:01;;;;;;;8.38;3.58;;;;;;;;;;5070265;28;20480;-75
2024/03/17 03:57:29;;;;;;;7.13;3.40;;;;;;;;;;5070143;28;20033;-75
2024/03/17 03:59:55;;;;;;;7.53;3.20;;;;;;;;;;5074148;28;20431;-76
2024/03/17 04:02:20;;;;;;;7.00;3.35;;;;;;;;;;5070831;28;20115;-76
2024/03/17 04:04:45;;;;;;;5.22;2.72;;;;;;;;;;5073006;28;20532;-76
2024/03/17 04:07:12;;;;;;;8.55;3.28;;;;;;;;;;5072857;28;20461;-75
2024/03/17 04:09:37;;;;;;;8.43;3.30;;;;;;;;;;5070301;28;20028;-75
2024/03/17 04:12:02;;;;;;;11.93;3.90;;;;;;;;;;5073283;28;20025;-76
2024/03/17 04:14:30;;;;;;;7.40;3.28;;;;;;;;;;5069857;28;20036;-75
2024/03/17 04:16:55;;;;;;;6.10;2.22;;;;;;;;;;5070103;28;20039;-76
2024/03/17 04:19:20;;;;;;;7.20;2.65;;;;;;;;;;5069783;28;20028;-75
2024/03/17 04:21:46;;;;;;;8.60;2.97;;;;;;;;;;5079908;28;20056;-75
2024/03/17 04:24:12;;;;;;;5.72;2.47;;;;;;;;;;5069485;28;20063;-75
2024/03/17 04:26:38;;;;;;;7.60;3.35;;;;;;;;;;5077123;28;20056;-75
2024/03/17 04:29:04;;;;;;;6.60;3.35;;;;;;;;;;5069762;28;20460;-75
2024/03/17 04:31:29;;;;;;;11.30;3.30;;;;;;;;;;5068833;28;20024;-75
2024/03/17 04:33:54;;;;;;;9.35;4.03;;;;;;;;;;5076983;28;20089;-75
2024/03/17 04:36:20;;;;;;;12.82;3.50;;;;;;;;;;5073898;28;20069;-75
2024/03/17 04:38:45;;;;;;;6.75;2.67;;;;;;;;;;5091715;28;20035;-75
2024/03/17 04:41:14;;;;;;;7.35;3.42;;;;;;;;;;5076116;28;20060;-75
2024/03/17 04:43:39;;;;;;;8.48;3.80;;;;;;;;;;5083699;28;20020;-75
2024/03/17 04:46:07;;;;;;;6.40;3.20;;;;;;;;;;5083332;28;20544;-75
2024/03/17 04:48:32;;;;;;;7.95;3.22;;;;;;;;;;5085139;28;20086;-75
2024/03/17 04:50:58;;;;;;;7.85;3.70;;;;;;;;;;5094861;28;20056;-75
2024/03/17 04:53:24;;;;;;;7.80;3.55;;;;;;;;;;5100687;28;20039;-76
2024/03/17 04:55:57;;;;;;;10.40;4.13;;;;;;;;;;5096334;28;20032;-76
2024/03/17 04:58:22;;;;;;;7.30;3.42;;;;;;;;;;5089590;28;20543;-76
2024/03/17 05:00:47;;;;;;;6.43;3.30;;;;;;;;;;5090385;28;20120;-75
2024/03/17 05:03:13;;;;;;;7.72;4.07;;;;;;;;;;5084243;28;20029;-75
2024/03/17 05:05:38;;;;;;;9.60;3.90;;;;;;;;;;5089031;28;20023;-75
2024/03/17 05:08:03;;;;;;;9.35;3.55;;;;;;;;;;5091102;28;20103;-76
2024/03/17 05:10:29;;;;;;;8.23;3.75;;;;;;;;;;5095501;28;20028;-76
2024/03/17 05:12:55;;;;;;;7.45;3.13;;;;;;;;;;5089062;28;20032;-75
2024/03/17 05:15:20;;;;;;;8.48;3.90;;;;;;;;;;5085354;28;20047;-76
2024/03/17 05:17:46;;;;;;;7.53;3.40;;;;;;;;;;5084502;28;20103;-74
2024/03/17 05:20:13;;;;;;;8.45;2.97;;;;;;;;;;5098214;28;20035;-76
2024/03/17 05:22:38;;;;;;;7.10;3.60;;;;;;;;;;5092690;28;20032;-76
2024/03/17 05:25:03;;;;;;;9.43;3.70;;;;;;;;;;5090011;28;20032;-75
2024/03/17 05:27:28;;;;;;;6.55;3.05;;;;;;;;;;5091723;28;20028;-76
2024/03/17 05:29:54;;;;;;;6.75;3.20;;;;;;;;;;5085268;28;20477;-75
2024/03/17 05:32:19;;;;;;;8.80;3.28;;;;;;;;;;5083986;28;20033;-76
2024/03/17 05:34:44;;;;;;;10.93;3.58;;;;;;;;;;5098241;28;20019;-75
2024/03/17 05:37:09;;;;;;;9.27;4.05;;;;;;;;;;5085254;28;20028;-75
2024/03/17 05:39:34;;;;;;;11.13;3.97;;;;;;;;;;5086652;28;20035;-76
2024/03/17 05:42:00;;;;;;;8.23;3.78;;;;;;;;;;5086678;28;20031;-76
2024/03/17 05:44:25;;;;;;;7.50;4.40;;;;;;;;;;5085714;28;20032;-76
2024/03/17 05:46:52;;;;;;;6.90;3.20;;;;;;;;;;5096398;28;20032;-75
2024/03/17 05:49:18;;;;;;;11.55;3.90;;;;;;;;;;5091690;28;20024;-76
2024/03/17 05:51:43;;;;;;;10.07;4.03;;;;;;;;;;5096346;28;20692;-76
2024/03/17 05:54:08;;;;;;;8.13;3.72;;;;;;;;;;5089063;28;20032;-75
2024/03/17 05:56:34;;;;;;;9.98;4.45;;;;;;;;;;5089774;28;20101;-76
2024/03/17 05:59:00;;;;;;;8.45;4.15;;;;;;;;;;5083068;28;20028;-76
2024/03/17 06:01:25;;;;;;;10.13;3.38;;;;;;;;;;5094714;28;20031;-74
2024/03/17 06:03:50;;;;;;;8.82;3.80;;;;;;;;;;5096161;28;20044;-75
2024/03/17 06:06:15;;;;;;;9.05;3.47;;;;;;;;;;5083510;28;20028;-75
2024/03/17 06:08:40;;;;;;;9.48;3.67;;;;;;;;;;5075994;28;20028;-76
2024/03/17 06:11:06;;;;;;;9.63;3.90;;;;;;;;;;5083328;28;20035;-75
2024/03/17 06:13:31;;;;;;;7.65;3.33;;;;;;;;;;5087358;28;20019;-75
2024/03/17 06:16:00;;;;;;;10.43;4.28;;;;;;;;;;5083379;28;20028;-75
2024/03/17 06:18:25;;;;;;;9.25;3.95;;;;;;;;;;5082801;28;20043;-75
2024/03/17 06:20:51;;;;;;;11.95;4.45;;;;;;;;;;5090499;28;20032;-76
2024/03/17 06:23:16;;;;;;;7.95;3.33;;;;;;;;;;5085335;28;20021;-75
2024/03/17 06:25:43;;;;;;;12.20;4.65;;;;;;;;;;5084320;28;20023;-76
2024/03/17 06:28:09;;;;;;;9.65;4.05;;;;;;;;;;5088177;28;20028;-76
2024/03/17 06:30:35;;;;;;;10.63;3.85;;;;;;;;;;5096808;28;20038;-76
2024/03/17 06:33:01;;;;;;;11.63;4.43;;;;;;;;;;5092306;28;20109;-75
2024/03/17 06:35:26;;;;;;;9.02;4.00;;;;;;;;;;5088548;28;20056;-76
2024/03/17 06:37:52;;;;;;;7.97;3.55;;;;;;;;;;5083447;28;20032;-76
2024/03/17 06:40:17;;;;;;;10.45;3.70;;;;;;;;;;5082768;28;20082;-76
2024/03/17 06:42:43;;;;;;;12.43;4.35;;;;;;;;;;5086925;28;20040;-76
2024/03/17 06:45:08;;;;;;;10.32;3.97;;;;;;;;;;5091941;28;20024;-75
2024/03/17 06:47:37;;;;;;;6.65;3.25;;;;;;;;;;5092938;28;20136;-75
2024/03/17 06:50:03;;;;;;;10.70;4.10;;;;;;;;;;5086641;28;20055;-76
2024/03/17 06:52:28;;;;;;;11.77;3.83;;;;;;;;;;5084229;28;20067;-76
2024/03/17 06:54:53;;;;;;;12.15;4.50;;;;;;;;;;5082456;28;20056;-76
2024/03/17 06:57:19;;;;;;;8.95;3.55;;;;;;;;;;5092782;28;20486;-76
2024/03/17 06:59:45;;;;;;;9.98;4.03;;;;;;;;;;5092811;28;20036;-76
2024/03/17 07:02:13;;;;;;;9.93;3.28;;;;;;;;;;5087347;28;20036;-76
2024/03/17 07:04:38;;;;;;;10.32;4.15;;;;;;;;;;5087362;28;20042;-76
2024/03/17 07:07:03;;;;;;;11.77;3.78;;;;;;;;;;5083069;28;20024;-75
2024/03/17 07:09:28;;;;;;;15.68;4.97;;;;;;;;;;5085653;28;20077;-76
2024/03/17 07:11:54;;;;;;;13.43;4.20;;;;;;;;;;5090573;28;20420;-75
2024/03/17 07:14:19;;;;;;;8.80;3.33;;;;;;;;;;5093614;28;20048;-75
2024/03/17 07:16:44;;;;;;;12.10;3.65;;;;;;;;;;5090618;28;20039;-76
2024/03/17 07:19:09;;;;;;;9.10;3.00;;;;;;;;;;5083933;28;20025;-75
2024/03/17 07:21:34;;;;;;;13.20;4.22;;;;;;;;;;5084123;28;20043;-76
2024/03/17 07:24:04;;;;;;;11.43;3.65;;;;;;;;;;5085263;28;20031;-76
2024/03/17 07:26:29;;;;;;;13.38;3.75;;;;;;;;;;5093174;28;20033;-76
2024/03/17 07:28:55;;;;;;;10.80;3.65;;;;;;;;;;5084509;28;20545;-75
2024/03/17 07:31:20;;;;;;;11.15;3.47;;;;;;;;;;5085624;28;20055;-76
2024/03/17 07:33:45;;;;;;;10.75;4.10;;;;;;;;;;5084719;28;20059;-75
2024/03/17 07:36:11;;;;;;;11.30;3.00;;;;;;;;;;5079836;28;20020;-76
2024/03/17 07:38:36;;;;;;;10.38;2.50;;;;;;;;;;5073373;28;20751;-75
2024/03/17 07:41:03;;;;;;;23.80;4.38;;;;;;;;;;5075996;28;20069;-76
2024/03/17 07:43:29;;;;;;;13.27;3.42;;;;;;;;;;5085334;28;20107;-75
2024/03/17 07:45:58;;;;;;;18.80;3.38;;;;;;;;;;5077352;28;20019;-76
2024/03/17 07:48:23;;;;;;;13.55;3.83;;;;;;;;;;5080874;28;20853;-76
2024/03/17 07:50:55;;;;;;;13.82;3.17;;;;;;;;;;5089681;28;20049;-76
2024/03/17 07:53:20;;;;;;;10.85;2.30;;;;;;;;;;5085507;28;20496;-76
2024/03/17 07:55:45;;;;;;;11.77;2.38;;;;;;;;;;5089727;28;20044;-76
2024/03/17 07:58:11;;;;;;;13.73;2.38;;;;;;;;;;5087291;28;20106;-76
2024/03/17 08:00:37;;;;;;;12.30;2.15;;;;;;;;;;5088894;28;20024;-75
2024/03/17 08:03:04;;;;;;;10.25;2.00;;;;;;;;;;5084389;28;20107;-76
2024/03/17 08:05:29;;;;;;;9.70;1.42;;;;;;;;;;5088732;28;20069;-76
2024/03/17 08:07:54;;;;;;;10.52;2.17;;;;;;;;;;5088469;28;20401;-75
2024/03/17 08:10:21;;;;;;;13.00;1.70;;;;;;;;;;5089155;28;20040;-76
2024/03/17 08:12:46;;;;;;;10.13;1.30;;;;;;;;;;5085472;28;20130;-75
2024/03/17 08:15:12;;;;;;;8.98;1.23;;;;;;;;;;5086638;28;20543;-76
2024/03/17 08:17:37;;;;;;;10.63;1.88;;;;;;;;;;5087692;28;20038;-76
2024/03/17 08:20:03;;;;;;;13.50;2.22;;;;;;;;;;5086558;28;20412;-75
2024/03/17 08:22:28;;;;;;;8.07;1.40;;;;;;;;;;5084328;28;20024;-76
2024/03/17 08:24:54;;;;;;;8.80;1.52;;;;;;;;;;5088792;28;20473;-76
2024/03/17 08:27:19;;;;;;;7.85;1.75;;;;;;;;;;5090261;28;20040;-77
2024/03/17 08:29:44;;;;;;;11.05;2.35;;;;;;;;;;5089225;28;20551;-76
2024/03/17 08:32:09;;;;;;;13.60;2.45;;;;;;;;;;5087025;28;20032;-76
2024/03/17 08:34:34;;;;;;;9.52;1.63;;;;;;;;;;5104300;28;20157;-76
2024/03/17 08:37:00;;;;;;;13.07;1.77;;;;;;;;;;5092285;28;20037;-77
2024/03/17 08:39:25;;;;;;;7.97;1.50;;;;;;;;;;5092836;28;20036;-77
2024/03/17 08:41:50;;;;;;;8.43;1.45;;;;;;;;;;5088173;28;20028;-77
2024/03/17 08:44:15;;;;;;;11.43;2.20;;;;;;;;;;5085751;28;20032;-77
2024/03/17 08:46:40;;;;;;;13.32;1.48;;;;;;;;;;5090807;28;20098;-76
2024/03/17 08:49:06;;;;;;;13.32;1.73;;;;;;;;;;5096851;28;20379;-77
2024/03/17 08:51:32;;;;;;;8.52;2.03;;;;;;;;;;5095694;28;20028;-76
2024/03/17 08:53:57;;;;;;;16.58;2.45;;;;;;;;;;5091352;28;20456;-76
2024/03/17 08:56:23;;;;;;;8.15;2.03;;;;;;;;;;5089454;28;20086;-77
2024/03/17 08:58:48;;;;;;;14.50;2.13;;;;;;;;;;5088113;28;20028;-76
2024/03/17 09:01:14;;;;;;;11.60;2.03;;;;;;;;;;5095677;28;20549;-76
2024/03/17 09:03:39;;;;;;;15.38;2.50;;;;;;;;;;5102019;28;20027;-76
2024/03/17 09:06:14;;;;;;;13.43;2.08;;;;;;;;;;5095852;28;20024;-78
2024/03/17 09:08:39;;;;;;;11.35;2.55;;;;;;;;;;5088842;28;20436;-77
2024/03/17 09:11:11;;;;;;;7.18;1.50;;;;;;;;;;5090310;28;20059;-77
2024/03/17 09:13:36;;;;;;;14.02;2.17;;;;;;;;;;5082206;28;20020;-78
2024/03/17 09:16:01;;;;;;;12.75;1.75;;;;;;;;;;5093169;28;20081;-77
2024/03/17 09:18:27;;;;;;;12.48;1.88;;;;;;;;;;5097030;28;20041;-77
2024/03/17 09:21:05;;;;;;;10.77;1.63;;;;;;;;;;5095280;28;20111;-77
2024/03/17 09:23:33;;;;;;;12.23;1.75;;;;;;;;;;5076102;28;20134;-77
2024/03/17 09:26:00;;;;;;;14.30;2.60;;;;;;;;;;5088379;28;20028;-78
2024/03/17 09:28:26;;;;;;;15.18;6.63;;;;;;;;;;5088173;28;20052;-79
2024/03/17 09:30:52;;;;;;;13.40;3.78;;;;;;;;;;5079187;28;20504;-78
2024/03/17 09:33:18;;;;;;;10.10;2.60;;;;;;;;;;5080275;28;20032;-78
2024/03/17 09:35:43;;;;;;;10.57;2.67;;;;;;;;;;5086138;28;20043;-78
2024/03/17 09:38:08;;;;;;;11.38;2.00;;;;;;;;;;5089738;28;20021;-78
2024/03/17 09:40:33;;;;;;;11.32;2.47;;;;;;;;;;5088083;28;20027;-78
2024/03/17 09:42:59;;;;;;;8.52;1.85;;;;;;;;;;5089936;28;20035;-78
2024/03/17 09:45:24;;;;;;;5.95;1.00;;;;;;;;;;5095381;28;20400;-77
2024/03/17 09:47:50;;;;;;;19.77;3.90;;;;;;;;;;5093389;28;20039;-78
2024/03/17 09:50:16;;;;;;;14.80;3.55;;;;;;;;;;5092228;28;20020;-78
2024/03/17 09:52:42;;;;;;;12.27;2.72;;;;;;;;;;5087149;28;20558;-78
2024/03/17 09:55:17;;;;;;;6.95;1.63;;;;;;;;;;5087051;28;20028;-78
2024/03/17 09:57:42;;;;;;;13.40;1.63;;;;;;;;;;5094644;28;20036;-77
2024/03/17 10:00:14;;;;;;;9.20;1.20;;;;;;;;;;5093684;28;20111;-77
2024/03/17 10:02:44;;;;;;;6.13;1.23;;;;;;;;;;5089045;28;20028;-78
2024/03/17 10:05:21;;;;;;;10.32;1.98;;;;;;;;;;5084759;28;20036;-78
2024/03/17 10:07:46;;;;;;;4.93;0.80;;;;;;;;;;5084622;28;20023;-76
2024/03/17 10:10:12;;;;;;;7.40;1.38;;;;;;;;;;5084070;28;20025;-79
2024/03/17 10:12:38;;;;;;;6.93;1.20;;;;;;;;;;5097490;28;20108;-79
2024/03/17 10:15:04;;;;;;;7.63;1.42;;;;;;;;;;5093139;28;20054;-76
2024/03/17 10:17:33;;;;;;;9.10;1.55;;;;;;;;;;5089428;28;20047;-75
2024/03/17 10:20:17;;;;;;;6.28;0.90;;;;;;;;;;5086587;28;20070;-74
2024/03/17 10:23:14;;;;;;;6.88;1.50;;;;;;;;;;5088768;28;20027;-75
2024/03/17 10:25:39;;;;;;;9.90;1.45;;;;;;;;;;5075210;28;20046;-76
2024/03/17 10:28:11;;;;;;;8.65;2.15;;;;;;;;;;5092613;28;20115;-76
2024/03/17 10:30:37;;;;;;;9.05;2.85;;;;;;;;;;5092875;28;20116;-76
2024/03/17 10:33:02;;;;;;;7.97;2.20;;;;;;;;;;5092635;28;20095;-76
2024/03/17 10:35:29;;;;;;;6.00;1.63;;;;;;;;;;5087652;28;20089;-76
2024/03/17 10:37:55;;;;;;;6.43;1.33;;;;;;;;;;5086234;28;20031;-75
2024/03/17 10:40:21;;;;;;;8.80;1.85;;;;;;;;;;5096949;28;20096;-76
2024/03/17 10:42:48;;;;;;;6.60;1.05;;;;;;;;;;5092681;28;20031;-76
2024/03/17 10:45:13;;;;;;;8.65;2.08;;;;;;;;;;5088861;28;20031;-76
2024/03/17 10:47:40;;;;;;;10.75;1.90;;;;;;;;;;5090150;28;20024;-76
2024/03/17 10:50:12;;;;;;;5.28;1.00;;;;;;;;;;5083551;28;20508;-76
2024/03/17 10:52:41;;;;;;;7.05;1.13;;;;;;;;;;5098416;28;20059;-76
2024/03/17 10:55:08;;;;;;;9.75;3.90;;;;;;;;;;5093053;28;20035;-76
2024/03/17 10:57:34;;;;;;;7.97;1.48;;;;;;;;;;5092951;28;20459;-76
2024/03/17 10:59:59;;;;;;;9.38;1.33;;;;;;;;;;5086231;28;20107;-76
2024/03/17 11:02:28;;;;;;;3.80;0.80;;;;;;;;;;5089522;28;20032;-76
2024/03/17 11:04:58;;;;;;;10.95;1.60;;;;;;;;;;5082879;28;20478;-76
2024/03/17 11:07:24;;;;;;;3.47;0.88;;;;;;;;;;5088865;28;20031;-76
2024/03/17 11:09:51;;;;;;;5.22;0.80;;;;;;;;;;5091672;28;20024;-76
2024/03/17 11:12:35;;;;;;;6.80;0.93;;;;;;;;;;5089825;28;20500;-76
2024/03/17 11:15:18;;;;;;;7.35;1.10;;;;;;;;;;5082704;28;20035;-76
2024/03/17 11:17:44;;;;;;;4.40;0.70;;;;;;;;;;5085280;28;20499;-76
2024/03/17 11:20:14;;;;;;;5.10;0.95;;;;;;;;;;5087056;28;20032;-74
2024/03/17 11:22:45;;;;;;;5.18;1.20;;;;;;;;;;5087568;28;20040;-75
2024/03/17 11:25:23;;;;;;;6.35;1.40;;;;;;;;;;5086436;28;20028;-74
2024/03/17 11:27:49;;;;;;;6.18;1.27;;;;;;;;;;5083635;28;20029;-75
2024/03/17 11:30:33;;;;;;;9.90;1.20;;;;;;;;;;5083859;28;20539;-75
2024/03/17 11:32:58;;;;;;;7.13;1.50;;;;;;;;;;5086150;28;20036;-75
2024/03/17 11:35:25;;;;;;;6.88;1.25;;;;;;;;;;5085311;28;20055;-74
2024/03/17 11:37:52;;;;;;;7.63;1.35;;;;;;;;;;5087130;28;20024;-74
2024/03/17 11:40:24;;;;;;;7.07;1.15;;;;;;;;;;5086431;28;20040;-74
2024/03/17 11:43:02;;;;;;;6.53;1.25;;;;;;;;;;5086585;28;20111;-74
2024/03/17 11:45:27;;;;;;;6.63;1.35;;;;;;;;;;5087778;28;20030;-74
2024/03/17 11:47:53;;;;;;;5.38;1.20;;;;;;;;;;5088658;28;20028;-75
2024/03/17 11:50:18;;;;;;;5.32;1.10;;;;;;;;;;5079818;28;20036;-76
2024/03/17 11:52:45;;;;;;;4.22;0.80;;;;;;;;;;5081724;28;20067;-74
2024/03/17 11:55:18;;;;;;;10.02;4.43;;;;;;;;;;5074124;28;20020;-73
2024/03/17 11:57:45;;;;;;;10.85;2.20;;;;;;;;;;5076283;28;20028;-74
2024/03/17 12:00:20;;;;;;;10.82;2.90;;;;;;;;;;5071328;28;20116;-75
2024/03/17 12:02:48;;;;;;;8.18;2.00;;;;;;;;;;5088065;28;20138;-75
2024/03/17 12:05:13;;;;;;;8.65;1.58;;;;;;;;;;5086300;28;20099;-74
2024/03/17 12:07:41;;;;;;;5.40;0.93;;;;;;;;;;5079136;28;20140;-74
2024/03/17 12:10:09;;;;;;;9.75;2.15;;;;;;;;;;5073494;28;20028;-74
2024/03/17 12:12:34;;;;;;;10.20;1.92;;;;;;;;;;5085939;28;20043;-75
2024/03/17 12:15:00;;;;;;;8.60;1.80;;;;;;;;;;5083346;28;20404;-74
2024/03/17 12:17:26;;;;;;;5.25;1.10;;;;;;;;;;5089576;28;20420;-75
2024/03/17 12:19:52;;;;;;;5.25;1.48;;;;;;;;;;5088102;28;20035;-75
2024/03/17 12:22:21;;;;;;;9.48;2.00;;;;;;;;;;5087461;28;20540;-75
2024/03/17 12:24:48;;;;;;;6.00;1.63;;;;;;;;;;5088310;28;20548;-75
2024/03/17 12:27:16;;;;;;;9.18;1.27;;;;;;;;;;5086612;28;20028;-75
2024/03/17 12:29:41;;;;;;;6.32;1.30;;;;;;;;;;5080580;28;20032;-75
2024/03/17 12:32:09;;;;;;;9.07;2.38;;;;;;;;;;5085684;28;20020;-75
2024/03/17 12:34:35;;;;;;;9.00;2.28;;;;;;;;;;5077522;28;20500;-74
2024/03/17 12:37:00;;;;;;;11.18;5.20;;;;;;;;;;5073707;28;20113;-74
2024/03/17 12:39:29;;;;;;;8.27;2.38;;;;;;;;;;5073230;28;20580;-73
2024/03/17 12:42:04;;;;;;;6.38;1.60;;;;;;;;;;5073768;28;20033;-74
2024/03/17 12:44:30;;;;;;;5.32;1.52;;;;;;;;;;5079450;28;20028;-74
2024/03/17 12:47:02;;;;;;;6.47;1.70;;;;;;;;;;5077284;28;20031;-74
2024/03/17 12:49:28;;;;;;;3.72;1.15;;;;;;;;;;5076325;28;20111;-74
2024/03/17 12:51:53;;;;;;;7.50;2.30;;;;;;;;;;5075970;28;20116;-74
2024/03/17 12:54:20;;;;;;;5.05;1.63;;;;;;;;;;5071964;28;20036;-74
2024/03/17 13:02:20;;;;;;;8.05;1.30;;;;;;;;;;5079600;28;20036;-74
2024/03/17 13:04:46;;;;;;;5.55;1.05;;;;;;;;;;5074686;28;20399;-75
2024/03/17 13:07:11;;;;;;;7.05;0.98;;;;;;;;;;5074720;28;20495;-74
2024/03/17 13:09:36;;;;;;;6.53;1.25;;;;;;;;;;5073662;28;20570;-74
2024/03/17 13:12:02;;;;;;;5.85;0.90;;;;;;;;;;5083785;28;20128;-75
2024/03/17 13:14:27;;;;;;;7.38;1.30;;;;;;;;;;5081461;28;20055;-74
2024/03/17 13:16:52;;;;;;;5.70;1.10;;;;;;;;;;5079192;28;20040;-74
2024/03/17 13:19:17;;;;;;;4.93;1.00;;;;;;;;;;5078525;28;20127;-74
2024/03/17 13:21:43;;;;;;;6.03;0.95;;;;;;;;;;5083134;28;20031;-75
2024/03/17 13:24:08;;;;;;;9.50;2.08;;;;;;;;;;5073254;28;20032;-74
2024/03/17 13:26:33;;;;;;;7.20;1.50;;;;;;;;;;5083215;28;20028;-74
2024/03/17 13:28:58;;;;;;;6.05;1.42;;;;;;;;;;5080008;28;20032;-75
2024/03/17 13:31:23;;;;;;;5.40;1.35;;;;;;;;;;5081470;28;20035;-75
2024/03/17 13:33:49;;;;;;;5.05;1.23;;;;;;;;;;5076323;28;20047;-76
2024/03/17 13:36:15;;;;;;;5.47;1.33;;;;;;;;;;5075347;28;20405;-75
2024/03/17 13:38:41;;;;;;;6.97;1.10;;;;;;;;;;5079564;28;20069;-74
2024/03/17 13:41:06;;;;;;;7.88;1.50;;;;;;;;;;5081463;28;20549;-76
2024/03/17 13:43:31;;;;;;;6.13;1.25;;;;;;;;;;5081614;28;20052;-76
2024/03/17 13:48:23;;;;;;;5.20;1.30;;;;;;;;;;5095494;27;20376;-76
2024/03/17 13:50:49;;;;;;;5.68;1.23;;;;;;;;;;5092094;28;20047;-74
2024/03/17 13:53:14;;;;;;;4.05;1.08;;;;;;;;;;5114699;22;20492;-81
2024/03/17 13:55:40;;;;;;;6.68;1.42;;;;;;;;;;5107213;28;20052;-77
2024/03/17 13:58:05;;;;;;;6.65;1.40;;;;;;;;;;5105455;28;20141;-76
2024/03/17 14:00:31;;;;;;;5.15;1.40;;;;;;;;;;5103531;28;20036;-74
2024/03/17 14:02:56;;;;;;;6.15;1.55;;;;;;;;;;5109937;28;20400;-74
2024/03/17 14:05:22;;;;;;;6.80;1.70;;;;;;;;;;5109230;28;20085;-75
2024/03/17 14:07:48;;;;;;;8.25;1.25;;;;;;;;;;5116082;28;20023;-76
2024/03/17 14:10:14;;;;;;;6.60;1.30;;;;;;;;;;5114604;28;20519;-75
2024/03/17 14:12:39;;;;;;;7.60;1.20;;;;;;;;;;5117531;28;20031;-79
2024/03/17 14:15:05;;;;;;;7.30;1.20;;;;;;;;;;5111914;28;20471;-76
2024/03/17 14:17:31;;;;;;;4.72;1.10;;;;;;;;;;5111561;28;20422;-79
2024/03/17 14:19:56;;;;;;;3.05;1.10;;;;;;;;;;5109583;28;20035;-80
2024/03/17 14:22:21;;;;;;;4.22;1.65;;;;;;;;;;5121797;28;20020;-78
2024/03/17 14:24:46;;;;;;;8.30;2.13;;;;;;;;;;5117002;28;20030;-78
2024/03/17 14:27:12;;;;;;;7.28;1.58;;;;;;;;;;5113589;28;20115;-80
2024/03/17 14:29:38;;;;;;;7.78;1.40;;;;;;;;;;5114590;28;20023;-79
2024/03/17 14:32:03;;;;;;;6.45;1.00;;;;;;;;;;5118692;27;20049;-79
2024/03/17 14:34:34;;;;;;;6.07;1.17;;;;;;;;;;5111526;28;20028;-78
2024/03/17 14:36:59;;;;;;;4.18;0.85;;;;;;;;;;5118379;27;20024;-78
2024/03/17 14:39:28;;;;;;;5.95;1.42;;;;;;;;;;5122986;28;20510;-79
2024/03/17 14:41:54;;;;;;;3.35;0.98;;;;;;;;;;5116284;28;20500;-78
2024/03/17 14:44:19;;;;;;;4.78;1.20;;;;;;;;;;5113689;28;20030;-78